sensor_id;sensor_type;location;lat;lon;timestamp;P1;durP1;ratioP1;P2;durP2;ratioP2
44456;SDS011;30159;49.316;8.558;2023-03-01T00:01:07;8.50;;;5.47;;
44456;SDS011;30159;49.316;8.558;2023-03-01T00:03:36;11.43;;;5.63;;
44456;SDS011;30159;49.316;8.558;2023-03-01T00:06:04;14.57;;;6.70;;
44456;SDS011;30159;49.316;8.558;2023-03-01T00:08:32;7.73;;;5.80;;
44456;SDS011;30159;49.316;8.558;2023-03-01T00:11:03;12.20;;;5.47;;
44456;SDS011;30159;49.316;8.558;2023-03-01T00:13:31;10.37;;;5.87;;
44456;SDS011;30159;49.316;8.558;2023-03-01T00:15:58;8.40;;;5.47;;
44456;SDS011;30159;49.316;8.558;2023-03-01T00:18:25;12.27;;;6.40;;
44456;SDS011;30159;49.316;8.558;2023-03-01T00:20:53;10.17;;;6.03;;
44456;SDS011;30159;49.316;8.558;2023-03-01T00:23:21;8.50;;;5.40;;
44456;SDS011;30159;49.316;8.558;2023-03-01T00:25:49;10.40;;;5.43;;
44456;SDS011;30159;49.316;8.558;2023-03-01T00:28:15;5.97;;;5.00;;
44456;SDS011;30159;49.316;8.558;2023-03-01T00:30:42;9.73;;;6.40;;
44456;SDS011;30159;49.316;8.558;2023-03-01T00:33:09;8.00;;;5.83;;
44456;SDS011;30159;49.316;8.558;2023-03-01T00:35:35;10.23;;;6.20;;
44456;SDS011;30159;49.316;8.558;2023-03-01T00:38:03;11.43;;;6.20;;
44456;SDS011;30159;49.316;8.558;2023-03-01T00:40:32;11.90;;;5.70;;
44456;SDS011;30159;49.316;8.558;2023-03-01T00:43:00;13.60;;;7.17;;
44456;SDS011;30159;49.316;8.558;2023-03-01T00:45:28;12.70;;;5.73;;
44456;SDS011;30159;49.316;8.558;2023-03-01T00:47:56;11.23;;;6.33;;
44456;SDS011;30159;49.316;8.558;2023-03-01T00:50:23;8.87;;;6.03;;
44456;SDS011;30159;49.316;8.558;2023-03-01T00:52:51;11.80;;;5.80;;
44456;SDS011;30159;49.316;8.558;2023-03-01T00:55:20;11.60;;;6.50;;
44456;SDS011;30159;49.316;8.558;2023-03-01T00:57:47;11.27;;;5.97;;
44456;SDS011;30159;49.316;8.558;2023-03-01T01:00:14;11.70;;;6.77;;
44456;SDS011;30159;49.316;8.558;2023-03-01T01:02:41;8.77;;;5.73;;
44456;SDS011;30159;49.316;8.558;2023-03-01T01:05:07;8.50;;;5.83;;
44456;SDS011;30159;49.316;8.558;2023-03-01T01:07:34;9.00;;;5.80;;
44456;SDS011;30159;49.316;8.558;2023-03-01T01:10:01;11.77;;;6.90;;
44456;SDS011;30159;49.316;8.558;2023-03-01T01:12:29;9.17;;;5.83;;
44456;SDS011;30159;49.316;8.558;2023-03-01T01:14:55;12.90;;;6.50;;
44456;SDS011;30159;49.316;8.558;2023-03-01T01:17:22;8.43;;;5.43;;
44456;SDS011;30159;49.316;8.558;2023-03-01T01:19:49;11.57;;;6.57;;
44456;SDS011;30159;49.316;8.558;2023-03-01T01:22:15;8.40;;;5.03;;
44456;SDS011;30159;49.316;8.558;2023-03-01T01:24:42;12.43;;;5.57;;
44456;SDS011;30159;49.316;8.558;2023-03-01T01:27:08;11.50;;;6.30;;
44456;SDS011;30159;49.316;8.558;2023-03-01T01:29:36;13.47;;;6.67;;
44456;SDS011;30159;49.316;8.558;2023-03-01T01:32:03;12.00;;;6.20;;
44456;SDS011;30159;49.316;8.558;2023-03-01T01:34:30;7.77;;;6.60;;
44456;SDS011;30159;49.316;8.558;2023-03-01T01:36:56;9.80;;;6.17;;
44456;SDS011;30159;49.316;8.558;2023-03-01T01:39:27;7.30;;;5.80;;
44456;SDS011;30159;49.316;8.558;2023-03-01T01:41:54;12.37;;;6.47;;
44456;SDS011;30159;49.316;8.558;2023-03-01T01:44:21;14.00;;;8.00;;
44456;SDS011;30159;49.316;8.558;2023-03-01T01:46:52;11.57;;;5.70;;
44456;SDS011;30159;49.316;8.558;2023-03-01T01:49:26;11.70;;;6.70;;
44456;SDS011;30159;49.316;8.558;2023-03-01T01:51:59;16.50;;;7.20;;
44456;SDS011;30159;49.316;8.558;2023-03-01T01:54:31;7.20;;;5.60;;
44456;SDS011;30159;49.316;8.558;2023-03-01T01:57:06;12.83;;;6.27;;
44456;SDS011;30159;49.316;8.558;2023-03-01T01:59:35;13.10;;;6.73;;
44456;SDS011;30159;49.316;8.558;2023-03-01T02:02:04;10.07;;;6.27;;
44456;SDS011;30159;49.316;8.558;2023-03-01T02:04:31;12.73;;;6.47;;
44456;SDS011;30159;49.316;8.558;2023-03-01T02:07:00;15.33;;;7.47;;
44456;SDS011;30159;49.316;8.558;2023-03-01T02:09:32;17.83;;;7.40;;
44456;SDS011;30159;49.316;8.558;2023-03-01T02:12:02;14.23;;;7.50;;
44456;SDS011;30159;49.316;8.558;2023-03-01T02:14:29;13.13;;;6.67;;
44456;SDS011;30159;49.316;8.558;2023-03-01T02:16:56;13.43;;;7.17;;
44456;SDS011;30159;49.316;8.558;2023-03-01T02:19:28;13.10;;;7.00;;
44456;SDS011;30159;49.316;8.558;2023-03-01T02:22:02;14.80;;;7.67;;
44456;SDS011;30159;49.316;8.558;2023-03-01T02:24:40;12.73;;;6.10;;
44456;SDS011;30159;49.316;8.558;2023-03-01T02:27:16;13.60;;;6.53;;
44456;SDS011;30159;49.316;8.558;2023-03-01T02:29:51;13.20;;;7.00;;
44456;SDS011;30159;49.316;8.558;2023-03-01T02:32:17;19.30;;;7.67;;
44456;SDS011;30159;49.316;8.558;2023-03-01T02:34:49;16.13;;;7.40;;
44456;SDS011;30159;49.316;8.558;2023-03-01T02:37:17;10.30;;;7.57;;
44456;SDS011;30159;49.316;8.558;2023-03-01T02:39:50;14.80;;;7.40;;
44456;SDS011;30159;49.316;8.558;2023-03-01T02:42:23;8.93;;;6.00;;
44456;SDS011;30159;49.316;8.558;2023-03-01T02:44:54;12.37;;;5.73;;
44456;SDS011;30159;49.316;8.558;2023-03-01T02:47:20;16.23;;;7.20;;
44456;SDS011;30159;49.316;8.558;2023-03-01T02:49:47;15.33;;;7.40;;
44456;SDS011;30159;49.316;8.558;2023-03-01T02:52:17;19.27;;;7.53;;
44456;SDS011;30159;49.316;8.558;2023-03-01T02:55:02;18.80;;;7.93;;
44456;SDS011;30159;49.316;8.558;2023-03-01T02:57:33;14.80;;;8.40;;
44456;SDS011;30159;49.316;8.558;2023-03-01T03:00:04;16.07;;;7.17;;
44456;SDS011;30159;49.316;8.558;2023-03-01T03:02:33;12.83;;;6.40;;
44456;SDS011;30159;49.316;8.558;2023-03-01T03:05:05;13.43;;;7.90;;
44456;SDS011;30159;49.316;8.558;2023-03-01T03:07:34;14.90;;;8.50;;
44456;SDS011;30159;49.316;8.558;2023-03-01T03:10:02;13.40;;;7.83;;
44456;SDS011;30159;49.316;8.558;2023-03-01T03:12:29;11.37;;;7.30;;
44456;SDS011;30159;49.316;8.558;2023-03-01T03:14:56;20.03;;;8.67;;
44456;SDS011;30159;49.316;8.558;2023-03-01T03:17:24;14.40;;;7.47;;
44456;SDS011;30159;49.316;8.558;2023-03-01T03:19:50;13.93;;;7.40;;
44456;SDS011;30159;49.316;8.558;2023-03-01T03:22:20;13.57;;;8.00;;
44456;SDS011;30159;49.316;8.558;2023-03-01T03:24:46;19.47;;;8.53;;
44456;SDS011;30159;49.316;8.558;2023-03-01T03:27:13;15.93;;;7.53;;
44456;SDS011;30159;49.316;8.558;2023-03-01T03:29:39;15.57;;;8.40;;
44456;SDS011;30159;49.316;8.558;2023-03-01T03:32:06;16.30;;;7.67;;
44456;SDS011;30159;49.316;8.558;2023-03-01T03:34:33;13.40;;;7.13;;
44456;SDS011;30159;49.316;8.558;2023-03-01T03:37:00;16.00;;;9.13;;
44456;SDS011;30159;49.316;8.558;2023-03-01T03:39:27;17.03;;;8.90;;
44456;SDS011;30159;49.316;8.558;2023-03-01T03:41:54;12.50;;;6.63;;
44456;SDS011;30159;49.316;8.558;2023-03-01T03:44:21;17.33;;;8.40;;
44456;SDS011;30159;49.316;8.558;2023-03-01T03:46:47;16.67;;;8.33;;
44456;SDS011;30159;49.316;8.558;2023-03-01T03:49:14;16.83;;;7.90;;
44456;SDS011;30159;49.316;8.558;2023-03-01T03:51:41;17.30;;;7.77;;
44456;SDS011;30159;49.316;8.558;2023-03-01T03:54:08;17.00;;;7.93;;
44456;SDS011;30159;49.316;8.558;2023-03-01T03:56:36;14.83;;;8.03;;
44456;SDS011;30159;49.316;8.558;2023-03-01T03:59:02;15.00;;;7.50;;
44456;SDS011;30159;49.316;8.558;2023-03-01T04:01:29;20.30;;;8.43;;
44456;SDS011;30159;49.316;8.558;2023-03-01T04:03:55;14.87;;;8.07;;
44456;SDS011;30159;49.316;8.558;2023-03-01T04:06:28;14.37;;;8.17;;
44456;SDS011;30159;49.316;8.558;2023-03-01T04:08:56;21.07;;;8.40;;
44456;SDS011;30159;49.316;8.558;2023-03-01T04:11:23;16.00;;;7.77;;
44456;SDS011;30159;49.316;8.558;2023-03-01T04:13:55;12.37;;;7.50;;
44456;SDS011;30159;49.316;8.558;2023-03-01T04:16:23;13.03;;;8.30;;
44456;SDS011;30159;49.316;8.558;2023-03-01T04:18:50;15.43;;;9.17;;
44456;SDS011;30159;49.316;8.558;2023-03-01T04:21:17;20.07;;;10.00;;
44456;SDS011;30159;49.316;8.558;2023-03-01T04:23:45;15.53;;;8.30;;
44456;SDS011;30159;49.316;8.558;2023-03-01T04:26:13;14.10;;;8.67;;
44456;SDS011;30159;49.316;8.558;2023-03-01T04:28:40;19.50;;;8.50;;
44456;SDS011;30159;49.316;8.558;2023-03-01T04:31:10;15.90;;;9.40;;
44456;SDS011;30159;49.316;8.558;2023-03-01T04:33:43;14.90;;;8.73;;
44456;SDS011;30159;49.316;8.558;2023-03-01T04:36:11;18.40;;;8.77;;
44456;SDS011;30159;49.316;8.558;2023-03-01T04:38:39;15.70;;;8.53;;
44456;SDS011;30159;49.316;8.558;2023-03-01T04:41:07;16.00;;;8.37;;
44456;SDS011;30159;49.316;8.558;2023-03-01T04:43:36;17.80;;;8.80;;
44456;SDS011;30159;49.316;8.558;2023-03-01T04:46:03;13.40;;;8.10;;
44456;SDS011;30159;49.316;8.558;2023-03-01T04:48:33;17.67;;;8.50;;
44456;SDS011;30159;49.316;8.558;2023-03-01T04:51:00;23.30;;;9.97;;
44456;SDS011;30159;49.316;8.558;2023-03-01T04:53:26;17.27;;;8.30;;
44456;SDS011;30159;49.316;8.558;2023-03-01T04:55:54;11.27;;;6.97;;
44456;SDS011;30159;49.316;8.558;2023-03-01T04:58:21;18.20;;;9.07;;
44456;SDS011;30159;49.316;8.558;2023-03-01T05:00:48;15.60;;;7.87;;
44456;SDS011;30159;49.316;8.558;2023-03-01T05:03:15;23.53;;;9.70;;
44456;SDS011;30159;49.316;8.558;2023-03-01T05:05:43;19.97;;;9.00;;
44456;SDS011;30159;49.316;8.558;2023-03-01T05:08:10;27.53;;;9.17;;
44456;SDS011;30159;49.316;8.558;2023-03-01T05:10:43;18.97;;;9.20;;
44456;SDS011;30159;49.316;8.558;2023-03-01T05:13:12;14.30;;;7.40;;
44456;SDS011;30159;49.316;8.558;2023-03-01T05:15:40;16.67;;;8.20;;
44456;SDS011;30159;49.316;8.558;2023-03-01T05:18:08;15.20;;;8.27;;
44456;SDS011;30159;49.316;8.558;2023-03-01T05:20:36;14.03;;;8.33;;
44456;SDS011;30159;49.316;8.558;2023-03-01T05:23:03;16.00;;;8.70;;
44456;SDS011;30159;49.316;8.558;2023-03-01T05:25:31;20.80;;;9.30;;
44456;SDS011;30159;49.316;8.558;2023-03-01T05:27:58;15.30;;;7.77;;
44456;SDS011;30159;49.316;8.558;2023-03-01T05:30:29;18.87;;;9.97;;
44456;SDS011;30159;49.316;8.558;2023-03-01T05:32:56;23.10;;;9.50;;
44456;SDS011;30159;49.316;8.558;2023-03-01T05:35:24;22.00;;;10.27;;
44456;SDS011;30159;49.316;8.558;2023-03-01T05:37:50;18.47;;;9.63;;
44456;SDS011;30159;49.316;8.558;2023-03-01T05:40:17;18.20;;;9.70;;
44456;SDS011;30159;49.316;8.558;2023-03-01T05:42:46;15.43;;;7.70;;
44456;SDS011;30159;49.316;8.558;2023-03-01T05:45:13;19.20;;;9.70;;
44456;SDS011;30159;49.316;8.558;2023-03-01T05:47:41;22.20;;;10.50;;
44456;SDS011;30159;49.316;8.558;2023-03-01T05:50:13;22.10;;;9.50;;
44456;SDS011;30159;49.316;8.558;2023-03-01T05:52:45;14.43;;;7.90;;
44456;SDS011;30159;49.316;8.558;2023-03-01T05:55:13;17.93;;;9.10;;
44456;SDS011;30159;49.316;8.558;2023-03-01T05:57:40;17.53;;;9.70;;
44456;SDS011;30159;49.316;8.558;2023-03-01T06:00:07;22.20;;;10.10;;
44456;SDS011;30159;49.316;8.558;2023-03-01T06:02:34;20.63;;;9.20;;
44456;SDS011;30159;49.316;8.558;2023-03-01T06:05:01;22.90;;;9.07;;
44456;SDS011;30159;49.316;8.558;2023-03-01T06:07:28;17.63;;;9.27;;
44456;SDS011;30159;49.316;8.558;2023-03-01T06:09:56;15.10;;;8.70;;
44456;SDS011;30159;49.316;8.558;2023-03-01T06:12:22;17.63;;;8.17;;
44456;SDS011;30159;49.316;8.558;2023-03-01T06:14:49;18.60;;;9.00;;
44456;SDS011;30159;49.316;8.558;2023-03-01T06:17:16;16.10;;;8.17;;
44456;SDS011;30159;49.316;8.558;2023-03-01T06:19:42;18.43;;;10.00;;
44456;SDS011;30159;49.316;8.558;2023-03-01T06:22:09;20.63;;;10.93;;
44456;SDS011;30159;49.316;8.558;2023-03-01T06:24:35;21.17;;;9.60;;
44456;SDS011;30159;49.316;8.558;2023-03-01T06:27:03;30.67;;;12.90;;
44456;SDS011;30159;49.316;8.558;2023-03-01T06:29:30;29.70;;;13.50;;
44456;SDS011;30159;49.316;8.558;2023-03-01T06:31:56;22.50;;;11.60;;
44456;SDS011;30159;49.316;8.558;2023-03-01T06:34:23;23.40;;;11.20;;
44456;SDS011;30159;49.316;8.558;2023-03-01T06:36:49;34.07;;;14.30;;
44456;SDS011;30159;49.316;8.558;2023-03-01T06:39:16;24.50;;;10.70;;
44456;SDS011;30159;49.316;8.558;2023-03-01T06:41:42;20.87;;;10.97;;
44456;SDS011;30159;49.316;8.558;2023-03-01T06:44:10;26.40;;;11.20;;
44456;SDS011;30159;49.316;8.558;2023-03-01T06:46:38;20.97;;;11.23;;
44456;SDS011;30159;49.316;8.558;2023-03-01T06:49:04;23.57;;;12.03;;
44456;SDS011;30159;49.316;8.558;2023-03-01T06:51:34;26.10;;;12.57;;
44456;SDS011;30159;49.316;8.558;2023-03-01T06:54:01;26.37;;;10.87;;
44456;SDS011;30159;49.316;8.558;2023-03-01T06:56:27;35.27;;;13.27;;
44456;SDS011;30159;49.316;8.558;2023-03-01T06:58:54;28.13;;;12.63;;
44456;SDS011;30159;49.316;8.558;2023-03-01T07:01:22;24.37;;;12.73;;
44456;SDS011;30159;49.316;8.558;2023-03-01T07:03:48;25.93;;;13.50;;
44456;SDS011;30159;49.316;8.558;2023-03-01T07:06:15;29.80;;;13.80;;
44456;SDS011;30159;49.316;8.558;2023-03-01T07:08:42;28.50;;;13.63;;
44456;SDS011;30159;49.316;8.558;2023-03-01T07:11:09;26.00;;;13.63;;
44456;SDS011;30159;49.316;8.558;2023-03-01T07:13:36;25.67;;;13.27;;
44456;SDS011;30159;49.316;8.558;2023-03-01T07:16:02;24.93;;;12.67;;
44456;SDS011;30159;49.316;8.558;2023-03-01T07:18:30;22.13;;;12.60;;
44456;SDS011;30159;49.316;8.558;2023-03-01T07:20:57;20.20;;;12.20;;
44456;SDS011;30159;49.316;8.558;2023-03-01T07:23:23;20.60;;;11.53;;
44456;SDS011;30159;49.316;8.558;2023-03-01T07:25:53;19.13;;;10.33;;
44456;SDS011;30159;49.316;8.558;2023-03-01T07:28:20;28.70;;;13.20;;
44456;SDS011;30159;49.316;8.558;2023-03-01T07:30:48;15.77;;;10.27;;
44456;SDS011;30159;49.316;8.558;2023-03-01T07:33:14;21.47;;;10.43;;
44456;SDS011;30159;49.316;8.558;2023-03-01T07:35:42;23.67;;;11.03;;
44456;SDS011;30159;49.316;8.558;2023-03-01T07:38:09;21.30;;;11.00;;
44456;SDS011;30159;49.316;8.558;2023-03-01T07:40:35;17.30;;;9.10;;
44456;SDS011;30159;49.316;8.558;2023-03-01T07:43:02;16.33;;;8.80;;
44456;SDS011;30159;49.316;8.558;2023-03-01T07:45:29;22.80;;;11.03;;
44456;SDS011;30159;49.316;8.558;2023-03-01T07:47:55;17.70;;;8.33;;
44456;SDS011;30159;49.316;8.558;2023-03-01T07:50:22;17.57;;;9.43;;
44456;SDS011;30159;49.316;8.558;2023-03-01T07:52:50;24.23;;;9.13;;
44456;SDS011;30159;49.316;8.558;2023-03-01T07:55:17;21.73;;;9.80;;
44456;SDS011;30159;49.316;8.558;2023-03-01T07:57:44;17.33;;;11.10;;
44456;SDS011;30159;49.316;8.558;2023-03-01T08:00:11;23.03;;;10.50;;
44456;SDS011;30159;49.316;8.558;2023-03-01T08:02:38;17.63;;;8.97;;
44456;SDS011;30159;49.316;8.558;2023-03-01T08:05:07;18.40;;;9.67;;
44456;SDS011;30159;49.316;8.558;2023-03-01T08:07:34;20.30;;;10.40;;
44456;SDS011;30159;49.316;8.558;2023-03-01T08:10:01;17.10;;;8.70;;
44456;SDS011;30159;49.316;8.558;2023-03-01T08:12:28;20.03;;;10.10;;
44456;SDS011;30159;49.316;8.558;2023-03-01T08:14:55;15.40;;;8.60;;
44456;SDS011;30159;49.316;8.558;2023-03-01T08:17:22;17.87;;;9.13;;
44456;SDS011;30159;49.316;8.558;2023-03-01T08:19:49;19.30;;;10.70;;
44456;SDS011;30159;49.316;8.558;2023-03-01T08:22:15;16.60;;;7.80;;
44456;SDS011;30159;49.316;8.558;2023-03-01T08:24:42;15.83;;;9.47;;
44456;SDS011;30159;49.316;8.558;2023-03-01T08:27:12;13.37;;;7.27;;
44456;SDS011;30159;49.316;8.558;2023-03-01T08:29:39;21.77;;;8.57;;
44456;SDS011;30159;49.316;8.558;2023-03-01T08:32:05;15.93;;;8.80;;
44456;SDS011;30159;49.316;8.558;2023-03-01T08:34:32;13.93;;;7.70;;
44456;SDS011;30159;49.316;8.558;2023-03-01T08:37:00;17.80;;;10.00;;
44456;SDS011;30159;49.316;8.558;2023-03-01T08:39:27;21.47;;;9.77;;
44456;SDS011;30159;49.316;8.558;2023-03-01T08:41:54;19.73;;;8.33;;
44456;SDS011;30159;49.316;8.558;2023-03-01T08:44:22;11.07;;;7.53;;
44456;SDS011;30159;49.316;8.558;2023-03-01T08:46:48;13.10;;;7.40;;
44456;SDS011;30159;49.316;8.558;2023-03-01T08:49:17;22.80;;;10.43;;
44456;SDS011;30159;49.316;8.558;2023-03-01T08:51:45;16.57;;;7.83;;
44456;SDS011;30159;49.316;8.558;2023-03-01T08:54:14;16.00;;;9.10;;
44456;SDS011;30159;49.316;8.558;2023-03-01T08:56:43;18.70;;;8.57;;
44456;SDS011;30159;49.316;8.558;2023-03-01T08:59:10;16.07;;;7.43;;
44456;SDS011;30159;49.316;8.558;2023-03-01T09:01:38;11.63;;;7.73;;
44456;SDS011;30159;49.316;8.558;2023-03-01T09:04:08;10.90;;;6.77;;
44456;SDS011;30159;49.316;8.558;2023-03-01T09:06:35;10.97;;;6.17;;
44456;SDS011;30159;49.316;8.558;2023-03-01T09:09:02;13.87;;;8.90;;
44456;SDS011;30159;49.316;8.558;2023-03-01T09:11:31;15.13;;;8.80;;
44456;SDS011;30159;49.316;8.558;2023-03-01T09:13:58;17.80;;;7.20;;
44456;SDS011;30159;49.316;8.558;2023-03-01T09:16:24;16.30;;;8.63;;
44456;SDS011;30159;49.316;8.558;2023-03-01T09:18:53;19.57;;;9.43;;
44456;SDS011;30159;49.316;8.558;2023-03-01T09:21:21;16.03;;;8.83;;
44456;SDS011;30159;49.316;8.558;2023-03-01T09:23:49;17.50;;;9.50;;
44456;SDS011;30159;49.316;8.558;2023-03-01T09:26:16;18.40;;;7.87;;
44456;SDS011;30159;49.316;8.558;2023-03-01T09:28:46;16.83;;;10.83;;
44456;SDS011;30159;49.316;8.558;2023-03-01T09:31:13;18.23;;;9.10;;
44456;SDS011;30159;49.316;8.558;2023-03-01T09:33:41;21.00;;;10.13;;
44456;SDS011;30159;49.316;8.558;2023-03-01T09:36:11;17.00;;;9.67;;
44456;SDS011;30159;49.316;8.558;2023-03-01T09:38:39;19.57;;;10.43;;
44456;SDS011;30159;49.316;8.558;2023-03-01T09:41:09;25.97;;;11.60;;
44456;SDS011;30159;49.316;8.558;2023-03-01T09:43:40;21.07;;;11.47;;
44456;SDS011;30159;49.316;8.558;2023-03-01T09:46:11;14.00;;;9.13;;
44456;SDS011;30159;49.316;8.558;2023-03-01T09:48:43;20.93;;;9.50;;
44456;SDS011;30159;49.316;8.558;2023-03-01T09:51:15;17.77;;;9.87;;
44456;SDS011;30159;49.316;8.558;2023-03-01T09:53:44;18.87;;;10.17;;
44456;SDS011;30159;49.316;8.558;2023-03-01T09:56:12;17.10;;;10.03;;
44456;SDS011;30159;49.316;8.558;2023-03-01T09:58:47;18.20;;;9.33;;
44456;SDS011;30159;49.316;8.558;2023-03-01T10:01:24;10.07;;;6.60;;
44456;SDS011;30159;49.316;8.558;2023-03-01T10:04:00;18.73;;;9.37;;
44456;SDS011;30159;49.316;8.558;2023-03-01T10:06:40;25.87;;;11.30;;
44456;SDS011;30159;49.316;8.558;2023-03-01T10:09:14;17.73;;;10.03;;
44456;SDS011;30159;49.316;8.558;2023-03-01T10:11:43;20.10;;;10.00;;
44456;SDS011;30159;49.316;8.558;2023-03-01T10:14:15;19.80;;;10.00;;
44456;SDS011;30159;49.316;8.558;2023-03-01T10:16:51;14.80;;;9.50;;
44456;SDS011;30159;49.316;8.558;2023-03-01T10:19:24;15.63;;;7.93;;
44456;SDS011;30159;49.316;8.558;2023-03-01T10:22:00;22.80;;;10.17;;
44456;SDS011;30159;49.316;8.558;2023-03-01T10:24:32;17.70;;;9.60;;
44456;SDS011;30159;49.316;8.558;2023-03-01T10:27:02;19.43;;;10.80;;
44456;SDS011;30159;49.316;8.558;2023-03-01T10:29:34;21.27;;;9.50;;
44456;SDS011;30159;49.316;8.558;2023-03-01T10:32:06;14.00;;;9.40;;
44456;SDS011;30159;49.316;8.558;2023-03-01T10:34:34;24.37;;;10.80;;
44456;SDS011;30159;49.316;8.558;2023-03-01T10:37:08;21.90;;;11.40;;
44456;SDS011;30159;49.316;8.558;2023-03-01T10:39:37;13.90;;;9.57;;
44456;SDS011;30159;49.316;8.558;2023-03-01T10:42:22;20.30;;;10.87;;
44456;SDS011;30159;49.316;8.558;2023-03-01T10:44:53;18.47;;;9.17;;
44456;SDS011;30159;49.316;8.558;2023-03-01T10:47:20;17.47;;;10.00;;
44456;SDS011;30159;49.316;8.558;2023-03-01T10:49:58;20.37;;;8.43;;
44456;SDS011;30159;49.316;8.558;2023-03-01T10:52:29;17.30;;;8.53;;
44456;SDS011;30159;49.316;8.558;2023-03-01T10:54:58;17.00;;;8.87;;
44456;SDS011;30159;49.316;8.558;2023-03-01T10:57:28;9.53;;;5.83;;
44456;SDS011;30159;49.316;8.558;2023-03-01T11:00:10;21.23;;;8.67;;
44456;SDS011;30159;49.316;8.558;2023-03-01T11:02:46;22.00;;;10.67;;
44456;SDS011;30159;49.316;8.558;2023-03-01T11:05:19;14.10;;;9.23;;
44456;SDS011;30159;49.316;8.558;2023-03-01T11:07:51;16.60;;;9.40;;
44456;SDS011;30159;49.316;8.558;2023-03-01T11:10:21;18.97;;;10.63;;
44456;SDS011;30159;49.316;8.558;2023-03-01T11:12:50;16.90;;;8.03;;
44456;SDS011;30159;49.316;8.558;2023-03-01T11:15:21;19.63;;;10.77;;
44456;SDS011;30159;49.316;8.558;2023-03-01T11:17:51;15.00;;;8.90;;
44456;SDS011;30159;49.316;8.558;2023-03-01T11:20:20;21.10;;;9.93;;
44456;SDS011;30159;49.316;8.558;2023-03-01T11:22:54;15.03;;;9.70;;
44456;SDS011;30159;49.316;8.558;2023-03-01T11:25:24;14.80;;;8.30;;
44456;SDS011;30159;49.316;8.558;2023-03-01T11:27:53;15.23;;;8.90;;
44456;SDS011;30159;49.316;8.558;2023-03-01T11:30:23;17.40;;;9.63;;
44456;SDS011;30159;49.316;8.558;2023-03-01T11:32:57;18.13;;;9.77;;
44456;SDS011;30159;49.316;8.558;2023-03-01T11:35:30;16.80;;;10.10;;
44456;SDS011;30159;49.316;8.558;2023-03-01T11:38:05;14.70;;;9.07;;
44456;SDS011;30159;49.316;8.558;2023-03-01T11:40:42;17.97;;;9.00;;
44456;SDS011;30159;49.316;8.558;2023-03-01T11:43:15;13.87;;;8.37;;
44456;SDS011;30159;49.316;8.558;2023-03-01T11:46:00;16.57;;;9.50;;
44456;SDS011;30159;49.316;8.558;2023-03-01T11:49:11;17.50;;;9.90;;
44456;SDS011;30159;49.316;8.558;2023-03-01T11:52:00;17.87;;;9.80;;
44456;SDS011;30159;49.316;8.558;2023-03-01T11:54:37;15.90;;;9.87;;
44456;SDS011;30159;49.316;8.558;2023-03-01T11:57:14;13.90;;;9.30;;
44456;SDS011;30159;49.316;8.558;2023-03-01T12:00:00;13.63;;;8.53;;
44456;SDS011;30159;49.316;8.558;2023-03-01T12:02:47;19.27;;;9.93;;
44456;SDS011;30159;49.316;8.558;2023-03-01T12:05:58;17.80;;;9.43;;
44456;SDS011;30159;49.316;8.558;2023-03-01T12:08:49;15.33;;;9.37;;
44456;SDS011;30159;49.316;8.558;2023-03-01T12:11:32;19.23;;;10.00;;
44456;SDS011;30159;49.316;8.558;2023-03-01T12:14:12;17.90;;;10.00;;
44456;SDS011;30159;49.316;8.558;2023-03-01T12:17:03;14.03;;;8.57;;
44456;SDS011;30159;49.316;8.558;2023-03-01T12:19:54;15.33;;;9.50;;
44456;SDS011;30159;49.316;8.558;2023-03-01T12:22:40;14.33;;;8.30;;
44456;SDS011;30159;49.316;8.558;2023-03-01T12:25:20;15.73;;;9.50;;
44456;SDS011;30159;49.316;8.558;2023-03-01T12:30:57;13.53;;;8.60;;
44456;SDS011;30159;49.316;8.558;2023-03-01T12:33:43;13.40;;;9.10;;
44456;SDS011;30159;49.316;8.558;2023-03-01T12:36:30;15.73;;;8.83;;
44456;SDS011;30159;49.316;8.558;2023-03-01T12:39:24;14.37;;;8.30;;
44456;SDS011;30159;49.316;8.558;2023-03-01T12:42:01;16.73;;;10.30;;
44456;SDS011;30159;49.316;8.558;2023-03-01T12:44:45;14.07;;;9.47;;
44456;SDS011;30159;49.316;8.558;2023-03-01T12:47:29;13.33;;;8.13;;
44456;SDS011;30159;49.316;8.558;2023-03-01T12:50:11;12.93;;;8.83;;
44456;SDS011;30159;49.316;8.558;2023-03-01T12:52:43;15.37;;;8.77;;
44456;SDS011;30159;49.316;8.558;2023-03-01T12:55:18;17.20;;;10.87;;
44456;SDS011;30159;49.316;8.558;2023-03-01T12:57:52;18.77;;;10.30;;
44456;SDS011;30159;49.316;8.558;2023-03-01T13:00:27;13.27;;;8.93;;
44456;SDS011;30159;49.316;8.558;2023-03-01T13:02:58;17.53;;;10.40;;
44456;SDS011;30159;49.316;8.558;2023-03-01T13:05:34;16.60;;;9.30;;
44456;SDS011;30159;49.316;8.558;2023-03-01T13:08:14;12.67;;;8.10;;
44456;SDS011;30159;49.316;8.558;2023-03-01T13:10:47;15.93;;;8.53;;
44456;SDS011;30159;49.316;8.558;2023-03-01T13:13:20;12.97;;;8.57;;
44456;SDS011;30159;49.316;8.558;2023-03-01T13:15:50;15.40;;;9.37;;
44456;SDS011;30159;49.316;8.558;2023-03-01T13:18:27;16.47;;;9.23;;
44456;SDS011;30159;49.316;8.558;2023-03-01T13:20:56;10.73;;;7.80;;
44456;SDS011;30159;49.316;8.558;2023-03-01T13:23:25;10.40;;;7.10;;
44456;SDS011;30159;49.316;8.558;2023-03-01T13:26:01;14.77;;;7.30;;
44456;SDS011;30159;49.316;8.558;2023-03-01T13:28:46;12.00;;;8.10;;
44456;SDS011;30159;49.316;8.558;2023-03-01T13:37:51;10.93;;;8.20;;
44456;SDS011;30159;49.316;8.558;2023-03-01T13:43:31;10.03;;;6.70;;
44456;SDS011;30159;49.316;8.558;2023-03-01T13:46:01;12.20;;;8.60;;
44456;SDS011;30159;49.316;8.558;2023-03-01T13:48:33;14.43;;;8.17;;
44456;SDS011;30159;49.316;8.558;2023-03-01T13:51:00;12.90;;;8.63;;
44456;SDS011;30159;49.316;8.558;2023-03-01T13:53:31;11.60;;;7.43;;
44456;SDS011;30159;49.316;8.558;2023-03-01T13:56:02;15.53;;;8.77;;
44456;SDS011;30159;49.316;8.558;2023-03-01T13:58:43;17.17;;;9.00;;
44456;SDS011;30159;49.316;8.558;2023-03-01T14:01:20;15.90;;;9.50;;
44456;SDS011;30159;49.316;8.558;2023-03-01T14:03:48;14.13;;;8.90;;
44456;SDS011;30159;49.316;8.558;2023-03-01T14:06:15;14.87;;;9.33;;
44456;SDS011;30159;49.316;8.558;2023-03-01T14:08:48;12.97;;;8.10;;
44456;SDS011;30159;49.316;8.558;2023-03-01T14:14:32;12.87;;;7.50;;
44456;SDS011;30159;49.316;8.558;2023-03-01T14:20:14;8.27;;;6.50;;
44456;SDS011;30159;49.316;8.558;2023-03-01T14:22:44;14.00;;;6.60;;
44456;SDS011;30159;49.316;8.558;2023-03-01T14:25:29;10.80;;;6.73;;
44456;SDS011;30159;49.316;8.558;2023-03-01T14:27:59;8.47;;;7.33;;
44456;SDS011;30159;49.316;8.558;2023-03-01T14:30:30;13.37;;;8.10;;
44456;SDS011;30159;49.316;8.558;2023-03-01T14:33:00;10.60;;;8.10;;
44456;SDS011;30159;49.316;8.558;2023-03-01T14:35:28;11.20;;;7.87;;
44456;SDS011;30159;49.316;8.558;2023-03-01T14:37:57;11.43;;;6.80;;
44456;SDS011;30159;49.316;8.558;2023-03-01T14:40:25;11.50;;;7.17;;
44456;SDS011;30159;49.316;8.558;2023-03-01T14:42:55;12.20;;;7.60;;
44456;SDS011;30159;49.316;8.558;2023-03-01T14:45:25;10.60;;;6.77;;
44456;SDS011;30159;49.316;8.558;2023-03-01T14:47:52;12.10;;;7.17;;
44456;SDS011;30159;49.316;8.558;2023-03-01T14:50:23;8.70;;;6.37;;
44456;SDS011;30159;49.316;8.558;2023-03-01T14:52:52;9.83;;;6.10;;
44456;SDS011;30159;49.316;8.558;2023-03-01T14:55:24;10.97;;;7.00;;
44456;SDS011;30159;49.316;8.558;2023-03-01T14:57:54;11.03;;;7.30;;
44456;SDS011;30159;49.316;8.558;2023-03-01T15:00:23;14.13;;;7.77;;
44456;SDS011;30159;49.316;8.558;2023-03-01T15:02:52;9.53;;;6.87;;
44456;SDS011;30159;49.316;8.558;2023-03-01T15:05:23;16.70;;;8.67;;
44456;SDS011;30159;49.316;8.558;2023-03-01T15:07:52;11.10;;;7.23;;
44456;SDS011;30159;49.316;8.558;2023-03-01T15:10:20;9.87;;;6.83;;